Time;durP1;ratioP1;P1;durP2;ratioP2;P2;SDS_P1;SDS_P2;PMS_P1;PMS_P2;Temp;Humidity;BMP_temperature;BMP_pressure;BME280_temperature;BME280_humidity;BME280_pressure;Samples;Min_cycle;Max_cycle;Signal;HPM_P1;HPM_P2
2023/10/15 00:01:08;;;;;;;3.45;0.28;;;8.50;75.20;;;;;;5026871;28;20504;-81
2023/10/15 00:03:35;;;;;;;4.37;0.20;;;8.40;75.50;;;;;;5026490;28;20046;-80
2023/10/15 00:06:02;;;;;;;4.38;0.40;;;8.30;75.20;;;;;;5026645;28;20316;-80
2023/10/15 00:08:29;;;;;;;2.50;0.20;;;8.30;75.40;;;;;;5010294;28;20133;-81
2023/10/15 00:10:56;;;;;;;3.88;0.22;;;8.30;76.20;;;;;;5026618;28;20057;-80
2023/10/15 00:13:23;;;;;;;3.10;0.63;;;8.30;76.20;;;;;;5026463;28;20052;-80
2023/10/15 00:15:51;;;;;;;5.27;0.30;;;8.30;76.90;;;;;;5026099;28;20157;-80
2023/10/15 00:18:18;;;;;;;3.10;0.20;;;8.20;77.00;;;;;;5026323;28;20257;-80
2023/10/15 00:20:47;;;;;;;4.20;0.35;;;8.30;78.20;;;;;;5026313;28;20085;-80
2023/10/15 00:23:14;;;;;;;3.67;0.40;;;8.20;78.00;;;;;;5026470;28;20196;-81
2023/10/15 00:25:47;;;;;;;4.97;0.30;;;8.20;78.30;;;;;;5009637;28;20062;-81
2023/10/15 00:28:15;;;;;;;3.07;0.30;;;8.20;77.80;;;;;;5026272;28;20050;-80
2023/10/15 00:30:44;;;;;;;4.13;0.38;;;8.20;77.60;;;;;;5026185;28;20292;-81
2023/10/15 00:33:13;;;;;;;3.78;0.28;;;8.20;77.50;;;;;;5009704;28;20050;-81
2023/10/15 00:35:44;;;;;;;2.58;0.30;;;8.20;77.60;;;;;;5009013;28;20896;-80
2023/10/15 00:38:16;;;;;;;3.45;0.55;;;8.20;77.80;;;;;;5011916;28;20507;-81
2023/10/15 00:40:45;;;;;;;2.13;0.30;;;8.20;77.80;;;;;;5013023;28;20109;-80
2023/10/15 00:43:17;;;;;;;1.30;0.10;;;8.20;77.90;;;;;;5028986;28;20261;-80
2023/10/15 00:45:45;;;;;;;2.33;0.15;;;8.20;77.80;;;;;;5029092;28;20586;-80
2023/10/15 00:48:22;;;;;;;4.18;0.30;;;8.10;77.90;;;;;;5012324;28;20058;-80
2023/10/15 00:50:51;;;;;;;3.38;0.20;;;8.10;78.10;;;;;;5027972;28;20653;-81
2023/10/15 00:53:24;;;;;;;3.67;0.30;;;8.10;78.30;;;;;;5011987;28;20442;-81
2023/10/15 00:55:52;;;;;;;2.25;0.20;;;8.10;78.40;;;;;;5010986;28;20293;-81
2023/10/15 00:58:31;;;;;;;2.85;0.30;;;8.00;78.20;;;;;;5011273;28;20054;-81
2023/10/15 01:01:00;;;;;;;2.78;0.30;;;8.00;78.20;;;;;;5027793;28;20054;-81
2023/10/15 01:03:31;;;;;;;6.00;0.40;;;8.00;78.70;;;;;;5028000;28;20056;-81
2023/10/15 01:06:04;;;;;;;3.90;0.50;;;8.00;78.50;;;;;;5012466;28;20693;-81
2023/10/15 01:08:35;;;;;;;3.13;0.30;;;8.00;78.70;;;;;;5029654;28;20303;-81
2023/10/15 01:11:14;;;;;;;5.03;0.30;;;8.00;79.10;;;;;;5012631;28;20053;-81
2023/10/15 01:13:41;;;;;;;3.65;0.30;;;8.10;79.60;;;;;;5012580;28;20466;-80
2023/10/15 01:16:10;;;;;;;3.97;0.20;;;8.10;79.70;;;;;;5012031;28;20068;-81
2023/10/15 01:18:38;;;;;;;2.97;0.30;;;8.10;79.90;;;;;;5029329;28;20050;-81
2023/10/15 01:21:09;;;;;;;3.83;0.30;;;8.10;80.10;;;;;;5012551;28;20387;-81
2023/10/15 01:23:45;;;;;;;2.95;0.20;;;8.10;80.00;;;;;;5012413;28;20074;-81
2023/10/15 01:26:23;;;;;;;3.22;0.30;;;8.10;80.10;;;;;;5012157;28;20060;-81
2023/10/15 01:28:51;;;;;;;2.00;0.30;;;8.10;79.90;;;;;;5012098;28;20659;-81
2023/10/15 01:31:18;;;;;;;2.50;0.20;;;8.10;79.60;;;;;;5009509;28;20250;-81
2023/10/15 01:33:49;;;;;;;2.00;0.30;;;8.10;79.50;;;;;;5009347;28;20636;-81
2023/10/15 01:36:19;;;;;;;2.45;0.20;;;8.10;79.40;;;;;;5028704;28;20133;-80
2023/10/15 01:38:46;;;;;;;2.20;0.10;;;8.00;79.80;;;;;;5028758;28;20050;-80
2023/10/15 01:41:16;;;;;;;2.55;0.20;;;8.00;80.30;;;;;;5028774;28;20042;-80
2023/10/15 01:43:46;;;;;;;2.27;0.20;;;8.00;80.20;;;;;;5028862;28;20050;-81
2023/10/15 01:46:24;;;;;;;0.52;0.10;;;7.90;80.70;;;;;;5028384;28;20295;-81
2023/10/15 01:48:51;;;;;;;2.05;0.22;;;7.90;80.80;;;;;;5011341;28;20105;-81
2023/10/15 01:51:18;;;;;;;5.32;0.40;;;7.80;80.60;;;;;;5012607;28;20423;-81
2023/10/15 01:53:46;;;;;;;3.55;0.30;;;7.80;80.80;;;;;;5011829;28;20891;-81
2023/10/15 01:56:20;;;;;;;2.07;0.30;;;7.80;80.60;;;;;;5029875;28;20058;-81
2023/10/15 01:58:47;;;;;;;2.22;0.30;;;7.80;80.80;;;;;;5011951;28;20731;-81
2023/10/15 02:01:21;;;;;;;2.50;0.30;;;7.80;80.60;;;;;;5028810;28;20056;-81
2023/10/15 02:03:48;;;;;;;3.55;0.32;;;7.80;80.40;;;;;;5028297;28;20105;-81
2023/10/15 02:06:19;;;;;;;2.53;0.20;;;7.80;80.50;;;;;;4998998;28;20054;-80
2023/10/15 02:08:47;;;;;;;4.87;0.40;;;7.80;80.30;;;;;;4992149;28;20054;-81
2023/10/15 02:11:21;;;;;;;2.13;0.17;;;7.80;80.30;;;;;;5022571;28;20354;-81
2023/10/15 02:13:48;;;;;;;2.20;0.20;;;7.80;80.20;;;;;;5008322;28;20636;-81
2023/10/15 02:16:18;;;;;;;3.95;0.32;;;7.80;80.30;;;;;;5008943;28;20397;-81
2023/10/15 02:18:51;;;;;;;4.90;0.63;;;7.80;80.30;;;;;;5011485;28;20049;-81
2023/10/15 02:21:19;;;;;;;4.30;0.40;;;7.80;80.30;;;;;;5028345;28;20077;-81
2023/10/15 02:23:50;;;;;;;3.78;0.50;;;7.80;80.20;;;;;;5027955;28;20258;-81
2023/10/15 02:26:23;;;;;;;3.80;0.25;;;7.80;80.10;;;;;;5027712;28;20054;-81
2023/10/15 02:28:53;;;;;;;2.97;0.20;;;7.80;80.30;;;;;;5011814;28;20068;-81
2023/10/15 02:31:22;;;;;;;2.78;0.30;;;7.80;80.20;;;;;;5027927;28;20490;-81
2023/10/15 02:33:49;;;;;;;4.80;0.30;;;7.80;80.20;;;;;;5011576;28;20515;-81
2023/10/15 02:36:17;;;;;;;3.10;0.20;;;7.80;80.20;;;;;;5027763;28;20858;-81
2023/10/15 02:38:53;;;;;;;4.05;0.60;;;7.80;80.30;;;;;;5027779;28;20064;-81
2023/10/15 02:41:24;;;;;;;2.22;0.20;;;7.80;80.20;;;;;;5011531;28;20057;-81
2023/10/15 02:43:55;;;;;;;4.35;0.35;;;7.70;80.20;;;;;;5011200;28;20057;-81
2023/10/15 02:46:28;;;;;;;2.03;0.10;;;7.60;80.20;;;;;;5027355;28;20057;-81
2023/10/15 02:48:55;;;;;;;3.10;0.30;;;7.60;80.40;;;;;;5011006;28;20245;-81
2023/10/15 02:51:24;;;;;;;2.58;0.30;;;7.60;80.40;;;;;;5011146;28;20532;-81
2023/10/15 02:53:53;;;;;;;2.42;0.30;;;7.50;80.40;;;;;;5027489;28;20061;-81
2023/10/15 02:56:22;;;;;;;3.50;0.30;;;7.50;80.90;;;;;;5010699;28;20057;-81
2023/10/15 02:58:50;;;;;;;4.70;0.30;;;7.50;80.70;;;;;;5011065;28;20057;-82
2023/10/15 03:01:20;;;;;;;3.33;0.30;;;7.50;80.70;;;;;;5011104;28;20284;-81
2023/10/15 03:03:52;;;;;;;5.25;0.40;;;7.50;80.80;;;;;;5010273;28;20472;-81
2023/10/15 03:06:24;;;;;;;3.33;0.25;;;7.40;81.00;;;;;;5026775;28;20101;-81
2023/10/15 03:08:52;;;;;;;2.55;0.38;;;7.40;80.70;;;;;;5010596;28;20104;-81
2023/10/15 03:11:21;;;;;;;3.00;0.20;;;7.40;80.80;;;;;;5027377;28;20486;-81
2023/10/15 03:13:54;;;;;;;3.35;0.22;;;7.30;81.10;;;;;;5011102;28;20246;-82
2023/10/15 03:16:22;;;;;;;2.30;0.15;;;7.30;81.00;;;;;;5027205;28;20074;-82
2023/10/15 03:18:50;;;;;;;2.83;0.20;;;7.20;80.90;;;;;;5027247;28;20148;-81
2023/10/15 03:21:25;;;;;;;3.83;0.30;;;7.20;80.90;;;;;;5010544;28;20050;-82
2023/10/15 03:23:55;;;;;;;3.13;0.30;;;7.20;80.80;;;;;;5027097;28;20548;-81
2023/10/15 03:26:24;;;;;;;2.67;0.30;;;7.30;80.80;;;;;;5010461;28;20285;-81
2023/10/15 03:28:54;;;;;;;3.92;0.32;;;7.20;80.80;;;;;;5026786;28;20053;-81
2023/10/15 03:31:25;;;;;;;2.10;0.20;;;7.20;80.80;;;;;;5010413;28;20108;-81
2023/10/15 03:34:12;;;;;;;3.30;0.30;;;7.30;80.80;;;;;;5027189;28;20130;-81
2023/10/15 03:36:50;;;;;;;1.73;0.20;;;7.30;80.80;;;;;;5010218;28;20049;-82
2023/10/15 03:39:16;;;;;;;1.63;0.15;;;7.30;80.70;;;;;;5010283;28;20385;-82
2023/10/15 03:41:49;;;;;;;2.45;0.20;;;7.20;80.50;;;;;;5010875;28;20069;-81
2023/10/15 03:44:23;;;;;;;4.30;0.28;;;7.20;80.60;;;;;;5010402;28;20228;-81
2023/10/15 03:46:50;;;;;;;5.55;0.45;;;7.20;80.60;;;;;;5010133;28;20049;-81
2023/10/15 03:49:26;;;;;;;4.70;0.30;;;7.20;80.60;;;;;;5010246;28;20569;-81
2023/10/15 03:51:54;;;;;;;5.40;0.30;;;7.20;80.60;;;;;;5026648;28;20316;-82
2023/10/15 03:54:23;;;;;;;3.80;0.20;;;7.20;80.60;;;;;;5026827;28;20117;-81
2023/10/15 03:56:51;;;;;;;1.95;0.22;;;7.20;80.60;;;;;;5026631;28;20053;-82
2023/10/15 03:59:20;;;;;;;2.95;0.20;;;7.10;80.50;;;;;;5026721;28;20599;-82
2023/10/15 04:01:49;;;;;;;3.57;0.30;;;7.10;80.60;;;;;;5010005;28;20062;-82
2023/10/15 04:04:17;;;;;;;3.78;0.30;;;7.00;80.60;;;;;;5026074;28;20869;-82
2023/10/15 04:06:50;;;;;;;2.60;0.20;;;7.00;80.70;;;;;;5026380;28;20054;-81
2023/10/15 04:09:22;;;;;;;3.22;0.38;;;7.00;80.90;;;;;;5026623;28;20433;-81
2023/10/15 04:11:50;;;;;;;3.08;0.30;;;7.00;81.00;;;;;;5025965;28;20128;-81
2023/10/15 04:14:26;;;;;;;3.63;0.33;;;6.90;81.00;;;;;;5009885;28;20140;-82
2023/10/15 04:16:57;;;;;;;3.70;0.30;;;6.90;80.90;;;;;;5026389;28;20274;-82
2023/10/15 04:19:26;;;;;;;3.28;0.20;;;6.90;80.80;;;;;;5010294;28;20054;-81
2023/10/15 04:21:59;;;;;;;2.15;0.28;;;6.80;81.00;;;;;;5027063;28;20682;-82
2023/10/15 04:24:36;;;;;;;5.50;0.50;;;6.80;80.80;;;;;;5026316;28;20124;-81
2023/10/15 04:27:06;;;;;;;3.37;0.30;;;6.80;81.00;;;;;;5025995;28;20058;-81
2023/10/15 04:29:43;;;;;;;4.07;0.20;;;6.80;81.00;;;;;;5006541;28;20274;-81
2023/10/15 04:32:17;;;;;;;4.28;0.55;;;6.80;81.00;;;;;;5006671;28;20499;-82
2023/10/15 04:34:46;;;;;;;2.60;0.30;;;6.80;81.00;;;;;;5009607;28;20060;-81
2023/10/15 04:37:20;;;;;;;2.47;0.45;;;6.80;80.80;;;;;;5025804;28;20049;-82
2023/10/15 04:39:51;;;;;;;1.80;0.10;;;6.80;80.70;;;;;;5025962;28;20504;-81
2023/10/15 04:42:24;;;;;;;3.45;0.30;;;6.90;80.70;;;;;;5026024;28;20268;-82
2023/10/15 04:44:53;;;;;;;3.25;0.30;;;6.90;80.70;;;;;;5025841;28;20057;-81
2023/10/15 04:47:27;;;;;;;4.75;0.20;;;6.90;80.60;;;;;;5009651;28;20500;-81
2023/10/15 04:49:57;;;;;;;3.95;0.20;;;6.80;80.50;;;;;;5009936;28;20046;-81
2023/10/15 04:52:25;;;;;;;1.97;0.20;;;6.80;80.60;;;;;;5009327;28;20057;-80
2023/10/15 04:54:55;;;;;;;3.45;0.35;;;6.80;80.70;;;;;;5009285;28;20281;-80
2023/10/15 04:57:23;;;;;;;2.17;0.30;;;6.80;81.00;;;;;;5026005;28;20050;-80
2023/10/15 04:59:50;;;;;;;3.05;0.20;;;6.90;81.20;;;;;;5026192;28;20062;-80
2023/10/15 05:02:18;;;;;;;2.22;0.10;;;6.90;81.50;;;;;;5009603;28;20060;-80
2023/10/15 05:04:47;;;;;;;2.37;0.20;;;6.90;81.50;;;;;;5025013;28;20065;-80
2023/10/15 05:07:15;;;;;;;2.22;0.20;;;6.90;81.70;;;;;;5025623;28;20277;-80
2023/10/15 05:09:44;;;;;;;1.15;0.10;;;6.90;82.20;;;;;;5025653;28;20046;-80
2023/10/15 05:12:12;;;;;;;2.10;0.25;;;7.00;82.20;;;;;;5025930;28;20057;-80
2023/10/15 05:14:40;;;;;;;1.90;0.13;;;6.90;82.40;;;;;;5025603;28;20050;-80
2023/10/15 05:17:07;;;;;;;2.63;0.20;;;7.00;82.30;;;;;;5025292;28;20050;-80
2023/10/15 05:19:34;;;;;;;4.55;0.32;;;7.00;82.30;;;;;;5009225;28;20257;-80
2023/10/15 05:22:02;;;;;;;3.47;0.40;;;7.00;82.30;;;;;;5027321;28;20563;-80
2023/10/15 05:24:30;;;;;;;3.17;0.30;;;7.00;82.40;;;;;;5026303;28;20054;-80
2023/10/15 05:26:57;;;;;;;2.35;0.20;;;7.00;82.20;;;;;;5012326;28;20507;-80
2023/10/15 05:29:24;;;;;;;3.27;0.30;;;7.00;82.40;;;;;;5029061;28;20054;-80
2023/10/15 05:31:51;;;;;;;1.85;0.10;;;6.90;82.50;;;;;;5028712;28;20273;-80
2023/10/15 05:34:19;;;;;;;1.85;0.20;;;6.90;82.50;;;;;;5030322;28;20141;-80
2023/10/15 05:36:46;;;;;;;1.23;0.15;;;7.00;82.30;;;;;;5028616;28;20046;-80
2023/10/15 05:39:16;;;;;;;1.10;0.10;;;7.00;82.10;;;;;;5012261;28;20250;-80
2023/10/15 05:41:43;;;;;;;2.07;0.10;;;7.00;81.90;;;;;;5028749;28;20050;-80
2023/10/15 05:44:10;;;;;;;2.45;0.10;;;7.00;81.50;;;;;;5012001;28;20272;-80
2023/10/15 05:46:37;;;;;;;3.25;0.20;;;7.00;81.50;;;;;;5028377;28;20046;-80
2023/10/15 05:49:05;;;;;;;1.83;0.28;;;7.00;81.00;;;;;;5028478;28;20060;-80
2023/10/15 05:51:32;;;;;;;1.27;0.10;;;7.00;80.70;;;;;;5028657;28;20046;-80
2023/10/15 05:53:59;;;;;;;3.33;0.20;;;7.00;80.20;;;;;;5028508;28;20046;-81
2023/10/15 05:56:28;;;;;;;0.82;0.15;;;7.00;80.10;;;;;;5028516;28;20282;-80
2023/10/15 05:58:55;;;;;;;3.50;0.30;;;7.00;80.30;;;;;;5011525;28;20062;-80
2023/10/15 06:01:23;;;;;;;2.70;0.20;;;7.00;80.40;;;;;;5011883;28;20054;-81
2023/10/15 06:03:50;;;;;;;1.55;0.17;;;7.00;80.30;;;;;;5027792;28;20070;-81
2023/10/15 06:06:16;;;;;;;1.70;0.10;;;6.90;80.50;;;;;;5011300;28;20054;-80
2023/10/15 06:08:44;;;;;;;4.72;0.30;;;7.00;80.70;;;;;;5028102;28;20277;-80
2023/10/15 06:11:12;;;;;;;1.65;0.20;;;6.90;80.90;;;;;;5028299;28;20090;-81
2023/10/15 06:13:40;;;;;;;1.35;0.10;;;6.90;81.20;;;;;;5027701;28;21179;-80
2023/10/15 06:16:07;;;;;;;1.48;0.10;;;6.90;80.80;;;;;;5011002;28;20593;-81
2023/10/15 06:18:34;;;;;;;2.27;0.10;;;6.90;81.00;;;;;;5011458;28;20057;-81
2023/10/15 06:21:01;;;;;;;1.52;0.22;;;6.90;81.20;;;;;;5011517;28;20253;-80
2023/10/15 06:23:28;;;;;;;1.55;0.10;;;6.90;81.30;;;;;;5010859;28;20056;-82
2023/10/15 06:25:55;;;;;;;1.15;0.10;;;6.90;81.60;;;;;;5020805;28;20512;-79
2023/10/15 06:28:25;;;;;;;0.80;0.10;;;6.90;82.10;;;;;;5019048;28;20056;-79
2023/10/15 06:30:55;;;;;;;0.97;0.10;;;6.90;81.90;;;;;;5016464;28;20473;-79
2023/10/15 06:33:22;;;;;;;1.75;0.20;;;6.90;81.20;;;;;;5017205;28;20253;-80
2023/10/15 06:35:51;;;;;;;2.00;0.10;;;6.80;80.80;;;;;;5013796;28;20051;-80
2023/10/15 06:38:18;;;;;;;2.50;0.17;;;6.80;80.50;;;;;;5000583;28;20086;-80
2023/10/15 06:40:45;;;;;;;1.92;0.10;;;6.80;80.80;;;;;;5001351;28;20042;-79
2023/10/15 06:43:15;;;;;;;1.57;0.10;;;6.80;80.80;;;;;;5019365;28;20061;-79
2023/10/15 06:45:42;;;;;;;2.80;0.30;;;6.80;81.00;;;;;;5023860;28;20300;-80
2023/10/15 06:48:10;;;;;;;1.25;0.10;;;6.80;80.90;;;;;;5010113;28;20034;-79
2023/10/15 06:50:37;;;;;;;2.95;0.10;;;6.80;81.10;;;;;;5022987;28;20085;-80
2023/10/15 06:53:05;;;;;;;0.98;0.10;;;6.80;81.50;;;;;;5015350;28;20051;-80
2023/10/15 06:55:32;;;;;;;0.63;0.10;;;6.80;81.70;;;;;;5015935;28;20061;-79
2023/10/15 06:57:59;;;;;;;1.70;0.10;;;6.80;82.20;;;;;;5014855;28;20688;-79
2023/10/15 07:00:26;;;;;;;2.28;0.10;;;6.80;82.40;;;;;;5006502;28;20161;-79
2023/10/15 07:02:54;;;;;;;2.85;0.17;;;6.80;82.80;;;;;;5024553;28;20153;-79
2023/10/15 07:05:23;;;;;;;1.83;0.10;;;6.80;82.70;;;;;;5012351;28;20060;-79
2023/10/15 07:07:50;;;;;;;1.23;0.10;;;6.80;83.00;;;;;;5025381;28;20050;-79
2023/10/15 07:10:18;;;;;;;1.85;0.10;;;6.80;82.80;;;;;;5017364;28;20349;-79
2023/10/15 07:12:46;;;;;;;1.83;0.10;;;6.80;82.80;;;;;;5017935;28;20149;-81
2023/10/15 07:15:14;;;;;;;4.15;0.15;;;6.80;82.70;;;;;;5017242;28;20080;-80
2023/10/15 07:17:41;;;;;;;0.73;0.10;;;6.80;82.70;;;;;;5017285;28;20520;-80
2023/10/15 07:20:14;;;;;;;3.50;0.10;;;6.80;82.60;;;;;;5001605;28;20062;-79
2023/10/15 07:22:44;;;;;;;1.38;0.10;;;6.80;82.60;;;;;;5000108;28;20263;-80
2023/10/15 07:25:12;;;;;;;1.88;0.10;;;6.80;82.90;;;;;;5002249;28;20145;-79
2023/10/15 07:27:41;;;;;;;1.83;0.10;;;6.80;83.00;;;;;;5012777;28;20054;-80
2023/10/15 07:30:11;;;;;;;4.40;0.30;;;6.80;83.50;;;;;;5020134;28;20112;-79
2023/10/15 07:32:39;;;;;;;1.43;0.10;;;6.80;83.70;;;;;;5016431;28;20061;-79
2023/10/15 07:35:07;;;;;;;1.45;0.10;;;6.80;83.70;;;;;;5022161;28;20273;-80
2023/10/15 07:37:35;;;;;;;1.58;0.10;;;6.80;84.00;;;;;;5006208;28;20476;-80
2023/10/15 07:40:06;;;;;;;2.30;0.20;;;6.80;84.00;;;;;;5015584;28;20062;-81
2023/10/15 07:42:33;;;;;;;1.85;0.10;;;6.80;84.30;;;;;;5010349;28;20135;-80
2023/10/15 07:45:01;;;;;;;2.53;0.30;;;6.70;84.50;;;;;;5014919;28;20184;-81
2023/10/15 07:47:29;;;;;;;3.28;0.22;;;6.70;84.70;;;;;;5015179;28;20258;-81
2023/10/15 07:49:57;;;;;;;2.10;0.20;;;6.70;84.70;;;;;;5024405;28;20508;-82
2023/10/15 07:52:25;;;;;;;2.33;0.10;;;6.70;84.80;;;;;;5024284;28;20057;-83
2023/10/15 07:54:52;;;;;;;2.42;0.20;;;6.70;85.00;;;;;;5007949;28;20072;-81
2023/10/15 07:57:20;;;;;;;1.80;0.20;;;6.70;85.00;;;;;;5024102;28;20100;-82
2023/10/15 07:59:47;;;;;;;1.52;0.10;;;6.70;84.80;;;;;;5002897;28;20268;-82
2023/10/15 08:02:13;;;;;;;1.92;0.10;;;6.70;84.90;;;;;;4998863;28;20058;-82
2023/10/15 08:04:41;;;;;;;3.05;0.20;;;6.70;84.70;;;;;;4999251;28;20054;-81
2023/10/15 08:07:09;;;;;;;2.83;0.20;;;6.80;84.70;;;;;;4999789;28;20164;-80
2023/10/15 08:09:36;;;;;;;2.47;0.10;;;6.80;84.50;;;;;;5023493;28;20050;-80
2023/10/15 08:12:04;;;;;;;2.15;0.13;;;6.80;84.50;;;;;;5009580;28;20268;-81
2023/10/15 08:14:32;;;;;;;3.03;0.20;;;6.80;84.50;;;;;;5025619;28;20061;-80
2023/10/15 08:16:59;;;;;;;3.17;0.30;;;6.90;84.50;;;;;;5009268;28;20523;-83
2023/10/15 08:19:26;;;;;;;2.10;0.30;;;6.90;84.50;;;;;;5009125;28;20054;-81
2023/10/15 08:21:53;;;;;;;1.23;0.10;;;6.90;84.50;;;;;;5009090;28;20651;-84
2023/10/15 08:24:20;;;;;;;2.95;0.10;;;7.00;84.90;;;;;;5024358;28;20285;-81
2023/10/15 08:26:47;;;;;;;2.55;0.20;;;7.00;84.80;;;;;;5025476;28;20133;-78
2023/10/15 08:29:14;;;;;;;2.47;0.25;;;7.10;84.50;;;;;;5022839;28;20493;-86
2023/10/15 08:31:42;;;;;;;4.15;0.20;;;7.10;84.50;;;;;;4997640;28;20543;-84
2023/10/15 08:34:12;;;;;;;3.83;0.40;;;7.20;84.40;;;;;;5000541;28;20084;-83
2023/10/15 08:36:39;;;;;;;2.80;0.20;;;7.20;84.50;;;;;;5015335;28;20258;-84
2023/10/15 08:39:07;;;;;;;2.55;0.17;;;7.20;84.70;;;;;;5016572;28;20487;-84
2023/10/15 08:41:39;;;;;;;5.43;0.20;;;7.30;85.00;;;;;;4998427;28;20054;-82
2023/10/15 08:44:08;;;;;;;3.53;0.40;;;7.40;85.00;;;;;;5016897;28;20054;-81
2023/10/15 08:46:37;;;;;;;2.60;0.20;;;7.50;85.10;;;;;;5012430;28;20128;-81
2023/10/15 08:49:09;;;;;;;3.90;0.30;;;7.50;85.00;;;;;;4996989;28;20632;-82
2023/10/15 08:51:36;;;;;;;3.13;0.30;;;7.50;85.10;;;;;;5025977;28;20056;-81
2023/10/15 08:54:04;;;;;;;4.00;0.30;;;7.60;85.10;;;;;;5026314;28;20061;-82
2023/10/15 08:56:32;;;;;;;3.83;0.35;;;7.70;85.20;;;;;;5030505;28;20046;-84
2023/10/15 08:59:00;;;;;;;3.80;0.10;;;7.80;85.20;;;;;;5011805;28;20042;-82
2023/10/15 09:01:27;;;;;;;2.53;0.20;;;7.80;85.30;;;;;;5030153;28;20250;-82
2023/10/15 09:03:54;;;;;;;3.92;0.30;;;7.80;85.00;;;;;;5028942;28;20065;-81
2023/10/15 09:06:23;;;;;;;5.05;0.40;;;7.90;85.00;;;;;;5013543;28;20054;-84
2023/10/15 09:08:51;;;;;;;2.83;0.30;;;8.00;85.00;;;;;;4993839;28;21156;-84
2023/10/15 09:11:20;;;;;;;2.57;0.27;;;8.00;85.00;;;;;;5017395;28;20049;-84
2023/10/15 09:13:51;;;;;;;2.63;0.30;;;8.10;85.10;;;;;;5029696;28;20750;-83
2023/10/15 09:16:18;;;;;;;2.40;0.20;;;8.10;84.60;;;;;;5030053;28;20086;-83
2023/10/15 09:18:45;;;;;;;1.67;0.20;;;8.20;83.80;;;;;;5029953;28;20050;-84
2023/10/15 09:21:23;;;;;;;4.55;0.20;;;8.30;83.20;;;;;;5029989;28;20526;-83
2023/10/15 09:23:52;;;;;;;1.27;0.30;;;8.30;82.60;;;;;;5012948;28;20904;-84
2023/10/15 09:26:19;;;;;;;2.47;0.25;;;8.40;82.60;;;;;;5007703;28;20249;-79
2023/10/15 09:28:46;;;;;;;1.83;0.20;;;8.50;82.50;;;;;;5031181;28;20068;-82
2023/10/15 09:31:13;;;;;;;2.42;0.20;;;8.60;81.30;;;;;;5029894;28;20077;-82
2023/10/15 09:33:41;;;;;;;2.75;0.10;;;8.60;81.10;;;;;;5012497;28;20052;-82
2023/10/15 09:36:08;;;;;;;4.10;0.20;;;8.70;78.70;;;;;;5027895;28;20048;-82
2023/10/15 09:38:36;;;;;;;2.33;0.15;;;8.80;78.00;;;;;;5011512;28;21326;-82
2023/10/15 09:41:06;;;;;;;3.03;0.17;;;8.90;77.40;;;;;;5011123;28;20081;-82
2023/10/15 09:43:35;;;;;;;5.32;0.40;;;8.90;77.50;;;;;;5011263;28;20045;-82
2023/10/15 09:46:03;;;;;;;3.30;0.40;;;9.00;77.50;;;;;;5027602;28;20061;-83
2023/10/15 09:48:33;;;;;;;4.90;0.30;;;9.00;77.20;;;;;;5028282;28;20065;-82
2023/10/15 09:51:01;;;;;;;1.83;0.10;;;9.00;77.10;;;;;;5028842;28;20254;-81
2023/10/15 09:53:28;;;;;;;2.97;0.20;;;9.10;76.00;;;;;;5028935;28;20060;-82
2023/10/15 09:55:57;;;;;;;3.50;0.32;;;9.20;75.50;;;;;;5012563;28;20057;-81
2023/10/15 09:58:26;;;;;;;1.33;0.17;;;9.20;75.40;;;;;;5028305;28;20930;-81
2023/10/15 10:01:08;;;;;;;1.73;0.20;;;9.20;75.50;;;;;;5011496;28;20042;-80
2023/10/15 10:03:59;;;;;;;4.53;0.30;;;9.30;75.20;;;;;;5027977;28;20269;-81
2023/10/15 10:06:43;;;;;;;2.95;0.30;;;9.40;74.80;;;;;;5028330;28;20981;-82
2023/10/15 10:09:36;;;;;;;4.32;0.30;;;9.40;75.50;;;;;;5027831;28;20058;-81
2023/10/15 10:12:21;;;;;;;2.80;0.50;;;9.50;74.60;;;;;;5010431;28;20058;-82
2023/10/15 10:15:10;;;;;;;5.63;0.50;;;9.50;72.80;;;;;;5026498;28;20082;-82
2023/10/15 10:17:38;;;;;;;4.45;0.20;;;9.60;71.80;;;;;;5009440;28;20277;-86
2023/10/15 10:20:11;;;;;;;2.75;0.43;;;9.60;72.60;;;;;;5002781;28;20519;-83
2023/10/15 10:22:39;;;;;;;3.97;0.38;;;9.60;73.20;;;;;;4999762;28;20125;-86
2023/10/15 10:25:11;;;;;;;3.50;0.30;;;9.50;73.30;;;;;;5039430;28;20113;-83
2023/10/15 10:27:45;;;;;;;2.20;0.20;;;9.40;73.20;;;;;;5028464;28;20057;-80
2023/10/15 10:30:26;;;;;;;8.55;0.52;;;9.30;74.80;;;;;;5009746;28;20269;-80
2023/10/15 10:32:56;;;;;;;4.10;0.40;;;9.20;75.70;;;;;;4992460;28;20051;-80
2023/10/15 10:35:27;;;;;;;1.77;0.20;;;9.20;76.30;;;;;;5008588;28;20179;-80
2023/10/15 10:38:05;;;;;;;4.35;0.52;;;9.10;76.20;;;;;;4991190;28;20589;-80
2023/10/15 10:40:47;;;;;;;6.80;0.53;;;9.00;76.70;;;;;;4990888;28;20050;-81
2023/10/15 10:43:19;;;;;;;2.10;0.20;;;9.00;77.50;;;;;;5043555;28;20261;-80
2023/10/15 10:45:55;;;;;;;3.33;0.35;;;9.00;77.50;;;;;;5026856;28;20072;-81
2023/10/15 10:48:23;;;;;;;3.95;0.30;;;8.90;77.50;;;;;;5024160;28;20045;-81
2023/10/15 10:51:12;;;;;;;2.80;0.20;;;8.90;77.70;;;;;;5027133;28;20049;-81
2023/10/15 10:53:39;;;;;;;5.03;0.50;;;8.80;78.00;;;;;;5028455;28;20061;-81
2023/10/15 10:56:08;;;;;;;2.40;0.17;;;8.80;78.30;;;;;;5011452;28;20289;-80
2023/10/15 10:58:37;;;;;;;3.28;0.20;;;8.80;78.50;;;;;;5028687;28;20491;-80
2023/10/15 11:01:06;;;;;;;4.90;0.50;;;8.80;78.80;;;;;;5044025;22;20042;-84
2023/10/15 11:03:33;;;;;;;3.30;0.25;;;8.80;79.30;;;;;;4987662;28;20189;-81
2023/10/15 11:06:01;;;;;;;3.00;0.20;;;8.80;79.40;;;;;;4971583;28;20057;-82
2023/10/15 11:08:28;;;;;;;5.57;0.85;;;8.90;79.70;;;;;;4986837;28;21219;-81
2023/10/15 11:10:59;;;;;;;2.67;0.15;;;9.00;79.70;;;;;;4969794;28;20187;-82
2023/10/15 11:13:28;;;;;;;1.92;0.20;;;9.00;79.70;;;;;;5002639;28;20043;-82
2023/10/15 11:15:55;;;;;;;3.53;0.30;;;9.10;80.00;;;;;;4984199;28;20058;-81
2023/10/15 11:18:24;;;;;;;4.57;0.40;;;9.20;79.70;;;;;;4986158;28;20061;-81
2023/10/15 11:20:52;;;;;;;2.20;0.20;;;9.30;79.00;;;;;;4969520;28;20373;-81
2023/10/15 11:23:23;;;;;;;5.70;0.40;;;9.40;78.50;;;;;;4987398;28;20529;-81
2023/10/15 11:25:51;;;;;;;4.50;0.32;;;9.50;77.90;;;;;;4987599;28;20051;-80
2023/10/15 11:28:23;;;;;;;3.30;0.40;;;9.50;77.50;;;;;;4988039;28;20058;-81
2023/10/15 11:31:01;;;;;;;3.17;0.20;;;9.60;75.80;;;;;;4988357;28;20055;-82
2023/10/15 11:33:30;;;;;;;5.43;0.30;;;9.70;75.00;;;;;;5020865;28;20744;-83
2023/10/15 11:36:01;;;;;;;2.05;0.20;;;9.70;72.10;;;;;;5020663;28;20078;-81
2023/10/15 11:38:33;;;;;;;3.10;0.30;;;9.80;72.30;;;;;;5020929;28;20051;-82
2023/10/15 11:41:02;;;;;;;3.65;0.25;;;9.80;72.50;;;;;;4988206;28;20101;-81
2023/10/15 11:43:32;;;;;;;2.43;0.20;;;9.80;72.70;;;;;;5004464;28;20063;-82
2023/10/15 11:46:07;;;;;;;1.40;0.10;;;9.90;72.70;;;;;;5000341;28;20287;-81
2023/10/15 11:48:37;;;;;;;3.63;0.30;;;10.00;72.30;;;;;;5011205;28;20078;-83
2023/10/15 11:51:05;;;;;;;2.35;0.40;;;10.00;72.60;;;;;;4986751;28;20075;-82
2023/10/15 11:53:33;;;;;;;1.90;0.10;;;10.10;73.20;;;;;;4987301;28;20051;-82
2023/10/15 11:56:02;;;;;;;3.57;0.30;;;10.10;73.30;;;;;;4986728;28;20067;-83
2023/10/15 11:58:31;;;;;;;3.03;0.50;;;10.20;73.10;;;;;;4970705;28;20247;-82
2023/10/15 12:00:59;;;;;;;2.50;0.20;;;10.30;72.30;;;;;;4987134;28;20051;-82
2023/10/15 12:03:26;;;;;;;5.65;0.52;;;10.40;70.90;;;;;;4970698;28;20055;-82
2023/10/15 12:05:54;;;;;;;0.85;0.13;;;10.40;69.40;;;;;;4988896;28;20042;-81
2023/10/15 12:08:22;;;;;;;4.37;0.30;;;10.40;70.40;;;;;;5019704;28;20042;-82
2023/10/15 12:10:49;;;;;;;3.08;0.20;;;10.40;69.70;;;;;;5019381;28;20250;-82
2023/10/15 12:13:16;;;;;;;2.67;0.30;;;10.50;69.60;;;;;;4969958;28;20058;-82
2023/10/15 12:15:44;;;;;;;2.33;0.20;;;10.50;67.80;;;;;;5019108;28;20490;-82
2023/10/15 12:18:11;;;;;;;1.15;0.10;;;10.50;69.00;;;;;;5018990;28;20055;-82
2023/10/15 12:20:38;;;;;;;1.77;0.13;;;10.60;66.80;;;;;;4986398;28;20093;-82
2023/10/15 12:23:07;;;;;;;0.93;0.10;;;10.60;66.60;;;;;;5019521;28;20283;-82
2023/10/15 12:25:38;;;;;;;2.60;0.20;;;10.70;67.90;;;;;;4987570;28;20106;-82
2023/10/15 12:28:05;;;;;;;1.88;0.10;;;10.70;68.90;;;;;;4988005;28;20105;-82
2023/10/15 12:30:32;;;;;;;3.80;0.20;;;10.80;68.50;;;;;;4989204;28;20105;-82
2023/10/15 12:33:00;;;;;;;2.53;0.57;;;10.80;68.00;;;;;;4971964;28;20071;-82
2023/10/15 12:35:28;;;;;;;2.97;0.30;;;10.80;68.10;;;;;;4974976;28;20292;-82
2023/10/15 12:38:01;;;;;;;4.50;0.40;;;10.90;68.90;;;;;;5023817;28;20050;-82
2023/10/15 12:40:31;;;;;;;2.30;0.40;;;11.00;68.30;;;;;;5023992;28;20110;-81
2023/10/15 12:42:59;;;;;;;1.33;0.10;;;11.00;67.00;;;;;;4991126;28;20134;-82
2023/10/15 12:45:26;;;;;;;4.93;0.30;;;11.00;68.20;;;;;;4974612;28;20058;-83
2023/10/15 12:47:54;;;;;;;1.98;0.30;;;11.10;68.50;;;;;;4974797;28;20289;-82
2023/10/15 12:50:21;;;;;;;2.28;0.30;;;11.10;69.10;;;;;;4975214;28;20386;-82
2023/10/15 12:52:48;;;;;;;1.08;0.10;;;11.10;67.60;;;;;;5023836;28;20205;-82
2023/10/15 12:55:17;;;;;;;4.78;0.40;;;11.20;65.90;;;;;;5023751;28;20071;-82
2023/10/15 12:57:46;;;;;;;6.43;0.70;;;11.20;65.50;;;;;;4974428;28;20612;-82
2023/10/15 13:00:17;;;;;;;4.10;0.63;;;11.20;64.20;;;;;;5023991;28;20270;-82
2023/10/15 13:02:44;;;;;;;4.28;0.40;;;11.10;64.30;;;;;;4974608;28;20055;-81
2023/10/15 13:05:13;;;;;;;3.90;0.73;;;10.90;63.90;;;;;;4974630;28;20054;-81
2023/10/15 13:07:40;;;;;;;3.25;0.43;;;10.80;65.00;;;;;;5023495;28;20137;-81